sensor_id;sensor_type;location;lat;lon;timestamp;P1;durP1;ratioP1;P2;durP2;ratioP2
49147;SDS011;41980;45.550;12.070;2022-10-31T00:02:40;17.42;;;12.40;;
49147;SDS011;41980;45.550;12.070;2022-10-31T00:08:42;13.93;;;10.05;;
49147;SDS011;41980;45.550;12.070;2022-10-31T00:14:44;12.10;;;9.05;;
49147;SDS011;41980;45.550;12.070;2022-10-31T00:20:46;13.52;;;10.13;;
49147;SDS011;41980;45.550;12.070;2022-10-31T00:26:48;11.90;;;9.90;;
49147;SDS011;41980;45.550;12.070;2022-10-31T00:32:50;12.77;;;9.45;;
49147;SDS011;41980;45.550;12.070;2022-10-31T00:38:52;10.02;;;7.03;;
49147;SDS011;41980;45.550;12.070;2022-10-31T00:44:56;14.25;;;11.90;;
49147;SDS011;41980;45.550;12.070;2022-10-31T00:50:58;11.75;;;7.72;;
49147;SDS011;41980;45.550;12.070;2022-10-31T00:57:01;12.70;;;9.50;;
49147;SDS011;41980;45.550;12.070;2022-10-31T01:03:03;10.88;;;8.00;;
49147;SDS011;41980;45.550;12.070;2022-10-31T01:09:05;11.90;;;9.02;;
49147;SDS011;41980;45.550;12.070;2022-10-31T01:15:07;13.43;;;10.02;;
49147;SDS011;41980;45.550;12.070;2022-10-31T01:21:13;12.75;;;8.55;;
49147;SDS011;41980;45.550;12.070;2022-10-31T01:27:17;14.88;;;9.63;;
49147;SDS011;41980;45.550;12.070;2022-10-31T01:33:20;13.10;;;8.70;;
49147;SDS011;41980;45.550;12.070;2022-10-31T01:39:22;12.40;;;9.15;;
49147;SDS011;41980;45.550;12.070;2022-10-31T01:45:25;11.85;;;8.45;;
49147;SDS011;41980;45.550;12.070;2022-10-31T01:51:28;10.98;;;8.00;;
49147;SDS011;41980;45.550;12.070;2022-10-31T01:57:34;12.50;;;8.93;;
49147;SDS011;41980;45.550;12.070;2022-10-31T02:03:39;11.05;;;7.93;;
49147;SDS011;41980;45.550;12.070;2022-10-31T02:09:41;12.32;;;9.13;;
49147;SDS011;41980;45.550;12.070;2022-10-31T02:15:47;10.80;;;7.78;;
49147;SDS011;41980;45.550;12.070;2022-10-31T02:40:22;12.90;;;9.93;;
49147;SDS011;41980;45.550;12.070;2022-10-31T02:46:34;11.52;;;8.02;;
49147;SDS011;41980;45.550;12.070;2022-10-31T02:52:49;12.43;;;7.90;;
49147;SDS011;41980;45.550;12.070;2022-10-31T03:11:08;10.25;;;6.78;;
49147;SDS011;41980;45.550;12.070;2022-10-31T03:17:14;11.57;;;8.10;;
49147;SDS011;41980;45.550;12.070;2022-10-31T03:23:25;9.70;;;6.40;;
49147;SDS011;41980;45.550;12.070;2022-10-31T03:29:30;9.38;;;6.80;;
49147;SDS011;41980;45.550;12.070;2022-10-31T03:35:36;9.63;;;6.13;;
49147;SDS011;41980;45.550;12.070;2022-10-31T03:41:41;9.82;;;7.05;;
49147;SDS011;41980;45.550;12.070;2022-10-31T03:47:49;8.75;;;5.70;;
49147;SDS011;41980;45.550;12.070;2022-10-31T03:53:54;7.93;;;5.78;;
49147;SDS011;41980;45.550;12.070;2022-10-31T04:00:05;8.13;;;5.97;;
49147;SDS011;41980;45.550;12.070;2022-10-31T04:06:19;7.63;;;5.38;;
49147;SDS011;41980;45.550;12.070;2022-10-31T04:12:23;7.10;;;4.93;;
49147;SDS011;41980;45.550;12.070;2022-10-31T04:18:28;7.15;;;5.07;;
49147;SDS011;41980;45.550;12.070;2022-10-31T04:24:30;8.15;;;5.63;;
49147;SDS011;41980;45.550;12.070;2022-10-31T04:30:33;8.73;;;5.50;;
49147;SDS011;41980;45.550;12.070;2022-10-31T04:36:55;7.68;;;4.60;;
49147;SDS011;41980;45.550;12.070;2022-10-31T04:42:57;7.25;;;5.00;;
49147;SDS011;41980;45.550;12.070;2022-10-31T04:48:59;12.55;;;8.60;;
49147;SDS011;41980;45.550;12.070;2022-10-31T04:55:01;6.60;;;5.05;;
49147;SDS011;41980;45.550;12.070;2022-10-31T05:01:12;6.75;;;3.85;;
49147;SDS011;41980;45.550;12.070;2022-10-31T05:07:15;10.40;;;7.38;;
49147;SDS011;41980;45.550;12.070;2022-10-31T05:13:18;12.88;;;8.52;;
49147;SDS011;41980;45.550;12.070;2022-10-31T05:19:23;8.77;;;6.22;;
49147;SDS011;41980;45.550;12.070;2022-10-31T05:25:29;7.82;;;5.32;;
49147;SDS011;41980;45.550;12.070;2022-10-31T05:31:31;7.88;;;6.18;;
49147;SDS011;41980;45.550;12.070;2022-10-31T05:37:34;6.40;;;5.22;;
49147;SDS011;41980;45.550;12.070;2022-10-31T05:43:37;9.52;;;6.55;;
49147;SDS011;41980;45.550;12.070;2022-10-31T05:49:41;7.60;;;5.75;;
49147;SDS011;41980;45.550;12.070;2022-10-31T05:55:46;6.85;;;4.90;;
49147;SDS011;41980;45.550;12.070;2022-10-31T06:01:54;9.57;;;6.35;;
49147;SDS011;41980;45.550;12.070;2022-10-31T06:08:07;9.30;;;6.32;;
49147;SDS011;41980;45.550;12.070;2022-10-31T06:14:11;8.30;;;6.35;;
49147;SDS011;41980;45.550;12.070;2022-10-31T06:20:21;9.77;;;5.97;;
49147;SDS011;41980;45.550;12.070;2022-10-31T06:26:32;9.70;;;6.45;;
49147;SDS011;41980;45.550;12.070;2022-10-31T06:32:34;7.25;;;5.47;;
49147;SDS011;41980;45.550;12.070;2022-10-31T06:38:36;6.97;;;5.05;;
49147;SDS011;41980;45.550;12.070;2022-10-31T06:44:42;7.63;;;4.88;;
49147;SDS011;41980;45.550;12.070;2022-10-31T06:50:47;8.85;;;5.30;;
49147;SDS011;41980;45.550;12.070;2022-10-31T06:56:50;8.05;;;5.93;;
49147;SDS011;41980;45.550;12.070;2022-10-31T07:08:59;7.85;;;5.60;;
49147;SDS011;41980;45.550;12.070;2022-10-31T07:15:01;6.97;;;5.22;;
49147;SDS011;41980;45.550;12.070;2022-10-31T07:21:04;6.88;;;5.32;;
49147;SDS011;41980;45.550;12.070;2022-10-31T07:27:06;7.28;;;4.60;;
49147;SDS011;41980;45.550;12.070;2022-10-31T07:33:10;6.72;;;4.28;;
49147;SDS011;41980;45.550;12.070;2022-10-31T07:39:32;6.47;;;4.40;;
49147;SDS011;41980;45.550;12.070;2022-10-31T07:45:35;7.78;;;5.25;;
49147;SDS011;41980;45.550;12.070;2022-10-31T07:51:40;8.70;;;5.18;;
49147;SDS011;41980;45.550;12.070;2022-10-31T07:57:45;9.35;;;6.18;;
49147;SDS011;41980;45.550;12.070;2022-10-31T08:03:47;7.35;;;5.63;;
49147;SDS011;41980;45.550;12.070;2022-10-31T08:10:09;8.20;;;4.70;;
49147;SDS011;41980;45.550;12.070;2022-10-31T08:16:11;7.35;;;4.75;;
49147;SDS011;41980;45.550;12.070;2022-10-31T08:22:24;7.35;;;6.00;;
49147;SDS011;41980;45.550;12.070;2022-10-31T08:28:27;7.20;;;5.18;;
49147;SDS011;41980;45.550;12.070;2022-10-31T08:34:30;9.13;;;6.20;;
49147;SDS011;41980;45.550;12.070;2022-10-31T08:40:35;6.85;;;4.80;;
49147;SDS011;41980;45.550;12.070;2022-10-31T08:46:38;7.30;;;4.88;;
49147;SDS011;41980;45.550;12.070;2022-10-31T08:52:40;8.23;;;5.72;;
49147;SDS011;41980;45.550;12.070;2022-10-31T08:58:42;5.35;;;3.70;;
49147;SDS011;41980;45.550;12.070;2022-10-31T09:04:45;5.60;;;4.45;;
49147;SDS011;41980;45.550;12.070;2022-10-31T09:10:48;7.43;;;4.22;;
49147;SDS011;41980;45.550;12.070;2022-10-31T09:23:18;7.03;;;4.20;;
49147;SDS011;41980;45.550;12.070;2022-10-31T09:29:25;7.70;;;5.63;;
49147;SDS011;41980;45.550;12.070;2022-10-31T09:35:32;7.22;;;4.22;;
49147;SDS011;41980;45.550;12.070;2022-10-31T10:00:00;5.00;;;3.85;;
49147;SDS011;41980;45.550;12.070;2022-10-31T10:06:18;8.80;;;5.60;;
49147;SDS011;41980;45.550;12.070;2022-10-31T10:24:47;5.78;;;3.40;;
49147;SDS011;41980;45.550;12.070;2022-10-31T10:37:01;4.45;;;3.10;;
49147;SDS011;41980;45.550;12.070;2022-10-31T11:01:34;5.70;;;3.10;;
49147;SDS011;41980;45.550;12.070;2022-10-31T11:07:37;5.30;;;3.15;;
49147;SDS011;41980;45.550;12.070;2022-10-31T11:13:41;6.20;;;3.55;;
49147;SDS011;41980;45.550;12.070;2022-10-31T11:19:45;7.30;;;5.20;;
49147;SDS011;41980;45.550;12.070;2022-10-31T11:25:48;5.20;;;3.00;;
49147;SDS011;41980;45.550;12.070;2022-10-31T11:31:55;6.25;;;3.72;;
49147;SDS011;41980;45.550;12.070;2022-10-31T11:37:59;4.75;;;3.08;;
49147;SDS011;41980;45.550;12.070;2022-10-31T11:44:11;6.22;;;3.40;;
49147;SDS011;41980;45.550;12.070;2022-10-31T11:56:25;5.40;;;2.45;;
49147;SDS011;41980;45.550;12.070;2022-10-31T12:02:28;4.22;;;2.80;;
49147;SDS011;41980;45.550;12.070;2022-10-31T12:08:31;3.67;;;2.40;;
49147;SDS011;41980;45.550;12.070;2022-10-31T12:57:36;4.28;;;2.55;;
49147;SDS011;41980;45.550;12.070;2022-10-31T13:09:54;4.18;;;2.20;;
49147;SDS011;41980;45.550;12.070;2022-10-31T13:16:04;6.10;;;3.23;;
49147;SDS011;41980;45.550;12.070;2022-10-31T13:28:25;5.38;;;2.90;;
49147;SDS011;41980;45.550;12.070;2022-10-31T13:34:33;6.97;;;2.20;;
49147;SDS011;41980;45.550;12.070;2022-10-31T13:46:50;3.63;;;2.00;;
49147;SDS011;41980;45.550;12.070;2022-10-31T13:59:14;6.35;;;2.60;;
49147;SDS011;41980;45.550;12.070;2022-10-31T14:11:29;5.93;;;2.10;;
49147;SDS011;41980;45.550;12.070;2022-10-31T14:17:35;2.92;;;1.88;;
49147;SDS011;41980;45.550;12.070;2022-10-31T14:23:47;3.05;;;1.58;;
49147;SDS011;41980;45.550;12.070;2022-10-31T14:29:49;3.40;;;1.98;;
49147;SDS011;41980;45.550;12.070;2022-10-31T14:54:15;4.15;;;1.73;;
49147;SDS011;41980;45.550;12.070;2022-10-31T15:00:23;2.75;;;1.45;;
49147;SDS011;41980;45.550;12.070;2022-10-31T15:06:26;3.30;;;1.65;;
49147;SDS011;41980;45.550;12.070;2022-10-31T15:12:41;3.72;;;1.60;;
49147;SDS011;41980;45.550;12.070;2022-10-31T15:18:46;2.90;;;1.48;;
49147;SDS011;41980;45.550;12.070;2022-10-31T15:24:51;4.10;;;1.95;;
49147;SDS011;41980;45.550;12.070;2022-10-31T15:30:59;5.93;;;1.73;;
49147;SDS011;41980;45.550;12.070;2022-10-31T15:37:03;3.45;;;1.80;;
49147;SDS011;41980;45.550;12.070;2022-10-31T15:43:05;5.43;;;1.85;;
49147;SDS011;41980;45.550;12.070;2022-10-31T15:55:27;3.88;;;1.92;;
49147;SDS011;41980;45.550;12.070;2022-10-31T16:01:32;4.40;;;2.20;;
49147;SDS011;41980;45.550;12.070;2022-10-31T16:07:34;4.65;;;3.05;;
49147;SDS011;41980;45.550;12.070;2022-10-31T16:13:39;5.57;;;3.70;;
49147;SDS011;41980;45.550;12.070;2022-10-31T16:19:47;7.68;;;4.50;;
49147;SDS011;41980;45.550;12.070;2022-10-31T16:25:52;7.32;;;4.68;;
49147;SDS011;41980;45.550;12.070;2022-10-31T16:31:57;7.10;;;4.20;;
49147;SDS011;41980;45.550;12.070;2022-10-31T16:38:00;11.02;;;6.00;;
49147;SDS011;41980;45.550;12.070;2022-10-31T16:44:02;10.13;;;5.55;;
49147;SDS011;41980;45.550;12.070;2022-10-31T16:50:20;13.93;;;8.77;;
49147;SDS011;41980;45.550;12.070;2022-10-31T17:02:33;10.18;;;7.22;;
49147;SDS011;41980;45.550;12.070;2022-10-31T17:08:38;16.05;;;10.32;;
49147;SDS011;41980;45.550;12.070;2022-10-31T17:14:40;21.73;;;14.65;;
49147;SDS011;41980;45.550;12.070;2022-10-31T17:20:43;13.63;;;9.18;;
49147;SDS011;41980;45.550;12.070;2022-10-31T17:26:46;16.52;;;11.85;;
49147;SDS011;41980;45.550;12.070;2022-10-31T17:32:48;14.98;;;10.50;;
49147;SDS011;41980;45.550;12.070;2022-10-31T17:38:52;14.35;;;8.88;;
49147;SDS011;41980;45.550;12.070;2022-10-31T17:44:54;16.27;;;10.25;;
49147;SDS011;41980;45.550;12.070;2022-10-31T17:57:04;17.00;;;10.82;;
49147;SDS011;41980;45.550;12.070;2022-10-31T18:03:06;14.38;;;9.80;;
49147;SDS011;41980;45.550;12.070;2022-10-31T18:09:09;11.82;;;7.50;;
49147;SDS011;41980;45.550;12.070;2022-10-31T18:15:11;15.27;;;9.82;;
49147;SDS011;41980;45.550;12.070;2022-10-31T18:21:13;16.52;;;10.18;;
49147;SDS011;41980;45.550;12.070;2022-10-31T18:27:15;13.70;;;8.55;;
49147;SDS011;41980;45.550;12.070;2022-10-31T18:33:18;16.27;;;10.93;;
49147;SDS011;41980;45.550;12.070;2022-10-31T18:39:20;13.45;;;9.02;;
49147;SDS011;41980;45.550;12.070;2022-10-31T18:45:27;14.55;;;10.98;;
49147;SDS011;41980;45.550;12.070;2022-10-31T18:51:32;16.23;;;10.68;;
49147;SDS011;41980;45.550;12.070;2022-10-31T18:57:35;14.65;;;9.90;;
49147;SDS011;41980;45.550;12.070;2022-10-31T19:03:38;17.88;;;10.82;;
49147;SDS011;41980;45.550;12.070;2022-10-31T19:09:40;12.23;;;8.82;;
49147;SDS011;41980;45.550;12.070;2022-10-31T19:15:42;17.63;;;11.85;;
49147;SDS011;41980;45.550;12.070;2022-10-31T19:21:44;11.80;;;8.65;;
49147;SDS011;41980;45.550;12.070;2022-10-31T19:27:47;14.90;;;10.90;;
49147;SDS011;41980;45.550;12.070;2022-10-31T19:33:49;13.68;;;10.02;;
49147;SDS011;41980;45.550;12.070;2022-10-31T19:39:52;15.82;;;9.13;;
49147;SDS011;41980;45.550;12.070;2022-10-31T19:45:55;12.25;;;8.77;;
49147;SDS011;41980;45.550;12.070;2022-10-31T19:51:59;12.55;;;8.20;;
49147;SDS011;41980;45.550;12.070;2022-10-31T19:58:01;14.80;;;10.55;;
49147;SDS011;41980;45.550;12.070;2022-10-31T20:04:03;11.68;;;8.88;;
49147;SDS011;41980;45.550;12.070;2022-10-31T20:10:06;15.48;;;9.82;;
49147;SDS011;41980;45.550;12.070;2022-10-31T20:16:09;17.25;;;11.73;;
49147;SDS011;41980;45.550;12.070;2022-10-31T20:22:16;26.05;;;17.02;;
49147;SDS011;41980;45.550;12.070;2022-10-31T20:28:18;25.40;;;16.25;;
49147;SDS011;41980;45.550;12.070;2022-10-31T20:34:21;20.25;;;13.80;;
49147;SDS011;41980;45.550;12.070;2022-10-31T20:40:23;22.50;;;14.23;;
49147;SDS011;41980;45.550;12.070;2022-10-31T20:46:26;17.58;;;13.00;;
49147;SDS011;41980;45.550;12.070;2022-10-31T20:52:28;26.25;;;17.13;;
49147;SDS011;41980;45.550;12.070;2022-10-31T20:58:32;23.98;;;15.10;;
49147;SDS011;41980;45.550;12.070;2022-10-31T21:04:38;25.25;;;16.40;;
49147;SDS011;41980;45.550;12.070;2022-10-31T21:10:40;30.40;;;17.35;;
49147;SDS011;41980;45.550;12.070;2022-10-31T21:16:42;22.05;;;14.38;;
49147;SDS011;41980;45.550;12.070;2022-10-31T21:22:48;25.35;;;15.48;;
49147;SDS011;41980;45.550;12.070;2022-10-31T21:28:51;27.38;;;14.93;;
49147;SDS011;41980;45.550;12.070;2022-10-31T21:34:56;19.52;;;12.50;;
49147;SDS011;41980;45.550;12.070;2022-10-31T21:41:00;21.42;;;13.68;;
49147;SDS011;41980;45.550;12.070;2022-10-31T21:47:04;17.95;;;11.27;;
49147;SDS011;41980;45.550;12.070;2022-10-31T21:53:07;28.73;;;17.60;;
49147;SDS011;41980;45.550;12.070;2022-10-31T21:59:13;28.00;;;19.05;;
49147;SDS011;41980;45.550;12.070;2022-10-31T22:05:15;28.60;;;17.48;;
49147;SDS011;41980;45.550;12.070;2022-10-31T22:11:18;24.83;;;16.65;;
49147;SDS011;41980;45.550;12.070;2022-10-31T22:17:21;20.30;;;13.82;;
49147;SDS011;41980;45.550;12.070;2022-10-31T22:23:23;19.15;;;13.95;;
49147;SDS011;41980;45.550;12.070;2022-10-31T22:29:25;20.88;;;13.95;;
49147;SDS011;41980;45.550;12.070;2022-10-31T22:35:28;23.63;;;16.67;;
49147;SDS011;41980;45.550;12.070;2022-10-31T22:41:31;24.27;;;16.17;;
49147;SDS011;41980;45.550;12.070;2022-10-31T22:47:35;25.70;;;17.08;;
49147;SDS011;41980;45.550;12.070;2022-10-31T22:53:37;29.05;;;21.00;;
49147;SDS011;41980;45.550;12.070;2022-10-31T22:59:40;23.67;;;17.17;;
49147;SDS011;41980;45.550;12.070;2022-10-31T23:05:42;21.95;;;14.57;;
49147;SDS011;41980;45.550;12.070;2022-10-31T23:11:54;22.13;;;14.98;;
49147;SDS011;41980;45.550;12.070;2022-10-31T23:18:16;21.52;;;15.10;;
49147;SDS011;41980;45.550;12.070;2022-10-31T23:30:28;17.83;;;12.50;;
49147;SDS011;41980;45.550;12.070;2022-10-31T23:36:30;18.98;;;14.48;;
49147;SDS011;41980;45.550;12.070;2022-10-31T23:42:33;22.23;;;15.68;;
49147;SDS011;41980;45.550;12.070;2022-10-31T23:48:52;20.67;;;14.05;;
49147;SDS011;41980;45.550;12.070;2022-10-31T23:54:55;10.68;;;7.43;;
